Time;durP1;ratioP1;P1;durP2;ratioP2;P2;SDS_P1;SDS_P2;PMS_P1;PMS_P2;Temp;Humidity;BMP_temperature;BMP_pressure;BME280_temperature;BME280_humidity;BME280_pressure;Samples;Min_cycle;Max_cycle;Signal;HPM_P1;HPM_P2
2023/10/06 00:02:59;;;;;;;27.27;25.38;;;;;;;;;;5047986;28;20025;-60
2023/10/06 00:05:24;;;;;;;28.23;26.23;;;;;;;;;;5041803;28;20555;-58
2023/10/06 00:07:50;;;;;;;23.02;21.25;;;;;;;;;;5039253;28;20473;-61
2023/10/06 00:10:21;;;;;;;24.45;22.85;;;;;;;;;;5034196;28;20032;-60
2023/10/06 00:12:51;;;;;;;22.10;20.10;;;;;;;;;;5033566;28;20013;-60
2023/10/06 00:18:03;;;;;;;22.00;20.42;;;;;;;;;;5033763;28;20499;-60
2023/10/06 00:20:38;;;;;;;22.33;20.73;;;;;;;;;;5032711;28;20036;-60
2023/10/06 00:23:06;;;;;;;34.65;32.42;;;;;;;;;;5033522;28;20030;-60
2023/10/06 00:25:32;;;;;;;15.57;14.38;;;;;;;;;;5034195;28;20112;-61
2023/10/06 00:28:00;;;;;;;19.65;18.23;;;;;;;;;;5033875;28;20014;-60
2023/10/06 00:30:25;;;;;;;18.55;16.88;;;;;;;;;;5033031;28;20109;-61
2023/10/06 00:32:50;;;;;;;217.60;203.67;;;;;;;;;;5035777;28;20045;-59
2023/10/06 00:35:30;;;;;;;39.13;36.73;;;;;;;;;;5035306;28;20075;-59
2023/10/06 00:37:59;;;;;;;26.55;24.73;;;;;;;;;;5035649;28;20026;-60
2023/10/06 00:40:25;;;;;;;29.00;27.00;;;;;;;;;;5034001;28;20572;-60
2023/10/06 00:42:51;;;;;;;36.55;34.22;;;;;;;;;;5032445;28;20014;-60
2023/10/06 00:45:16;;;;;;;26.50;24.80;;;;;;;;;;5032559;28;20033;-61
2023/10/06 00:47:41;;;;;;;27.88;26.13;;;;;;;;;;5032888;28;20021;-60
2023/10/06 00:50:07;;;;;;;37.17;34.90;;;;;;;;;;5032099;28;20108;-59
2023/10/06 00:52:34;;;;;;;28.95;26.90;;;;;;;;;;5032621;28;20040;-60
2023/10/06 00:55:02;;;;;;;14.90;13.52;;;;;;;;;;5032198;28;20021;-60
2023/10/06 00:57:28;;;;;;;23.77;22.10;;;;;;;;;;5032492;28;20031;-59
2023/10/06 00:59:55;;;;;;;19.95;18.45;;;;;;;;;;5032079;28;20013;-59
2023/10/06 01:02:20;;;;;;;14.77;13.32;;;;;;;;;;5032424;28;20020;-61
2023/10/06 01:04:46;;;;;;;18.33;16.75;;;;;;;;;;5032026;28;20374;-60
2023/10/06 01:07:16;;;;;;;32.83;30.67;;;;;;;;;;5032057;28;20024;-60
2023/10/06 01:09:59;;;;;;;37.60;35.30;;;;;;;;;;5030476;28;20017;-60
2023/10/06 01:12:27;;;;;;;33.72;31.60;;;;;;;;;;5032207;28;20363;-59
2023/10/06 01:15:05;;;;;;;33.33;31.08;;;;;;;;;;5032017;28;20029;-60
2023/10/06 01:17:30;;;;;;;31.73;29.65;;;;;;;;;;5032322;28;20032;-60
2023/10/06 01:19:59;;;;;;;25.88;24.08;;;;;;;;;;5031206;28;20400;-61
2023/10/06 01:22:25;;;;;;;17.63;16.20;;;;;;;;;;5031736;28;20481;-61
2023/10/06 01:24:54;;;;;;;35.40;33.13;;;;;;;;;;5031861;28;20067;-60
2023/10/06 01:27:25;;;;;;;15.00;13.70;;;;;;;;;;5030885;28;20404;-60
2023/10/06 01:30:07;;;;;;;32.53;30.50;;;;;;;;;;5031153;28;20024;-60
2023/10/06 01:32:32;;;;;;;28.67;26.63;;;;;;;;;;5031743;28;20045;-59
2023/10/06 01:34:58;;;;;;;28.43;26.60;;;;;;;;;;5031966;28;20025;-61
2023/10/06 01:37:23;;;;;;;30.37;28.47;;;;;;;;;;5031872;28;20477;-61
2023/10/06 01:39:48;;;;;;;29.77;27.73;;;;;;;;;;5031110;28;20032;-59
2023/10/06 01:42:17;;;;;;;36.42;34.05;;;;;;;;;;5031714;28;20097;-59
2023/10/06 01:44:43;;;;;;;31.42;29.52;;;;;;;;;;5031800;28;20021;-58
2023/10/06 01:47:08;;;;;;;33.58;31.38;;;;;;;;;;5031863;28;20017;-59
2023/10/06 01:49:33;;;;;;;27.67;25.88;;;;;;;;;;5031253;28;20097;-58
2023/10/06 01:51:59;;;;;;;32.47;30.40;;;;;;;;;;5031942;28;20436;-59
2023/10/06 01:54:27;;;;;;;36.60;34.22;;;;;;;;;;5030774;28;20035;-64
2023/10/06 01:56:54;;;;;;;32.38;30.27;;;;;;;;;;5031435;28;20027;-61
2023/10/06 01:59:19;;;;;;;34.65;32.50;;;;;;;;;;5030744;28;20027;-58
2023/10/06 02:01:44;;;;;;;31.35;29.40;;;;;;;;;;5031463;28;20448;-61
2023/10/06 02:04:11;;;;;;;32.40;30.00;;;;;;;;;;5031332;28;20064;-60
2023/10/06 02:06:44;;;;;;;54.08;51.05;;;;;;;;;;5031016;28;20040;-60
2023/10/06 02:09:14;;;;;;;28.98;27.15;;;;;;;;;;5029561;28;20140;-59
2023/10/06 02:11:40;;;;;;;21.40;19.83;;;;;;;;;;5031413;28;20072;-60
2023/10/06 02:14:05;;;;;;;23.35;21.75;;;;;;;;;;5030823;28;20017;-61
2023/10/06 02:16:31;;;;;;;34.10;31.88;;;;;;;;;;5031173;28;20465;-61
2023/10/06 02:18:56;;;;;;;25.57;23.90;;;;;;;;;;5030849;28;20041;-59
2023/10/06 02:21:24;;;;;;;16.57;15.23;;;;;;;;;;5030676;28;20024;-59
2023/10/06 02:23:51;;;;;;;25.25;23.50;;;;;;;;;;5030851;28;20021;-59
2023/10/06 02:26:16;;;;;;;18.35;17.02;;;;;;;;;;5030992;28;20040;-61
2023/10/06 02:28:43;;;;;;;21.15;19.55;;;;;;;;;;5030682;28;20014;-61
2023/10/06 02:31:10;;;;;;;18.77;17.23;;;;;;;;;;5029185;28;20105;-60
2023/10/06 02:33:36;;;;;;;24.17;22.30;;;;;;;;;;5030857;28;20040;-59
2023/10/06 02:36:15;;;;;;;25.40;23.63;;;;;;;;;;5030677;28;20473;-60
2023/10/06 02:38:46;;;;;;;29.15;27.00;;;;;;;;;;5030787;28;20366;-60
2023/10/06 02:41:11;;;;;;;35.15;32.90;;;;;;;;;;5030595;28;20072;-60
2023/10/06 02:43:40;;;;;;;30.20;28.33;;;;;;;;;;5030938;28;20017;-60
2023/10/06 02:46:08;;;;;;;50.45;47.50;;;;;;;;;;5030908;28;20464;-60
2023/10/06 02:48:33;;;;;;;27.40;25.58;;;;;;;;;;5030942;28;20045;-60
2023/10/06 02:51:01;;;;;;;41.80;39.30;;;;;;;;;;5031037;28;20071;-60
2023/10/06 02:53:29;;;;;;;37.88;35.50;;;;;;;;;;5030910;28;20056;-60
2023/10/06 02:56:05;;;;;;;33.78;31.45;;;;;;;;;;5031606;28;20080;-60
2023/10/06 02:58:30;;;;;;;44.70;42.05;;;;;;;;;;5034535;28;20021;-59
2023/10/06 03:00:56;;;;;;;37.70;35.40;;;;;;;;;;5030808;28;20075;-60
2023/10/06 03:03:26;;;;;;;34.38;32.22;;;;;;;;;;5030732;28;20067;-59
2023/10/06 03:05:52;;;;;;;28.83;26.95;;;;;;;;;;5032613;28;20129;-60
2023/10/06 03:08:21;;;;;;;32.88;30.73;;;;;;;;;;5035160;28;20024;-59
2023/10/06 03:10:49;;;;;;;30.67;28.80;;;;;;;;;;5034163;28;20028;-59
2023/10/06 03:13:33;;;;;;;36.67;34.38;;;;;;;;;;5034561;28;20441;-58
2023/10/06 03:15:59;;;;;;;36.22;34.03;;;;;;;;;;5034286;28;20020;-60
2023/10/06 03:18:25;;;;;;;37.40;35.08;;;;;;;;;;5034479;28;20025;-60
2023/10/06 03:20:53;;;;;;;39.30;36.95;;;;;;;;;;5034456;28;20087;-59
2023/10/06 03:23:26;;;;;;;43.42;40.92;;;;;;;;;;5034761;28;20010;-60
2023/10/06 03:25:56;;;;;;;34.42;32.30;;;;;;;;;;5034831;28;20021;-59
2023/10/06 03:28:36;;;;;;;42.88;40.22;;;;;;;;;;5032641;28;20032;-58
2023/10/06 03:31:05;;;;;;;41.58;38.80;;;;;;;;;;5032470;28;20354;-59
2023/10/06 03:33:31;;;;;;;36.80;34.35;;;;;;;;;;5034430;28;20045;-60
2023/10/06 03:35:57;;;;;;;23.88;22.23;;;;;;;;;;5034631;28;20029;-60
2023/10/06 03:43:36;;;;;;;30.58;28.65;;;;;;;;;;5034432;28;20505;-60
2023/10/06 03:46:01;;;;;;;31.67;29.55;;;;;;;;;;5034171;28;20029;-60
2023/10/06 03:48:29;;;;;;;31.53;29.43;;;;;;;;;;5034793;28;20074;-60
2023/10/06 03:50:55;;;;;;;46.80;43.90;;;;;;;;;;5034221;28;20067;-60
2023/10/06 03:53:20;;;;;;;27.40;25.45;;;;;;;;;;5033848;28;20097;-59
2023/10/06 03:55:45;;;;;;;24.73;22.80;;;;;;;;;;5033372;28;20106;-60
2023/10/06 03:58:12;;;;;;;35.35;33.33;;;;;;;;;;5033539;28;20026;-60
2023/10/06 04:00:47;;;;;;;20.55;19.02;;;;;;;;;;5033212;28;20072;-60
2023/10/06 04:03:17;;;;;;;46.10;43.40;;;;;;;;;;5033395;28;20013;-60
2023/10/06 04:05:44;;;;;;;43.88;41.20;;;;;;;;;;5033483;28;20036;-61
2023/10/06 04:08:11;;;;;;;25.85;24.08;;;;;;;;;;5031978;28;20060;-59
2023/10/06 04:10:40;;;;;;;34.00;31.95;;;;;;;;;;5033478;28;20056;-58
2023/10/06 04:13:08;;;;;;;21.83;20.25;;;;;;;;;;5033564;28;20091;-59
2023/10/06 04:15:33;;;;;;;32.70;30.55;;;;;;;;;;5032782;28;20426;-59
2023/10/06 04:17:58;;;;;;;33.97;31.83;;;;;;;;;;5033062;28;20069;-60
2023/10/06 04:20:26;;;;;;;22.80;21.17;;;;;;;;;;5032615;28;20095;-58
2023/10/06 04:22:51;;;;;;;23.20;21.58;;;;;;;;;;5033639;28;20071;-61
2023/10/06 04:25:16;;;;;;;62.87;59.20;;;;;;;;;;5034539;28;20033;-58
2023/10/06 04:27:42;;;;;;;43.63;40.95;;;;;;;;;;5035405;28;20525;-61
2023/10/06 04:30:12;;;;;;;44.20;41.67;;;;;;;;;;5035529;28;20385;-60
2023/10/06 04:32:38;;;;;;;36.50;34.20;;;;;;;;;;5037600;28;20021;-58
2023/10/06 04:35:04;;;;;;;22.55;20.98;;;;;;;;;;5034309;28;20089;-60
2023/10/06 04:37:29;;;;;;;40.58;38.17;;;;;;;;;;5032579;28;20017;-60
2023/10/06 04:39:54;;;;;;;14.27;13.07;;;;;;;;;;5032333;28;20024;-60
2023/10/06 04:42:20;;;;;;;38.53;36.17;;;;;;;;;;5032793;28;20951;-61
2023/10/06 04:44:48;;;;;;;25.67;24.05;;;;;;;;;;5032875;28;20014;-61
2023/10/06 04:47:15;;;;;;;26.45;24.50;;;;;;;;;;5032412;28;20033;-60
2023/10/06 04:49:41;;;;;;;27.23;25.40;;;;;;;;;;5032191;28;20032;-60
2023/10/06 04:52:06;;;;;;;44.33;41.70;;;;;;;;;;5033025;28;20025;-58
2023/10/06 04:54:31;;;;;;;19.83;18.43;;;;;;;;;;5032522;28;20017;-58
2023/10/06 04:56:56;;;;;;;33.72;31.58;;;;;;;;;;5030997;28;20164;-60
2023/10/06 04:59:22;;;;;;;38.55;36.15;;;;;;;;;;5031953;28;20029;-60
2023/10/06 05:01:48;;;;;;;41.08;38.72;;;;;;;;;;5032480;28;20029;-59
2023/10/06 05:04:13;;;;;;;21.65;19.92;;;;;;;;;;5032162;28;20092;-60
2023/10/06 05:06:38;;;;;;;17.95;16.55;;;;;;;;;;5032009;28;20021;-59
2023/10/06 05:09:03;;;;;;;28.17;26.27;;;;;;;;;;5032179;28;20017;-60
2023/10/06 05:11:32;;;;;;;22.98;21.17;;;;;;;;;;5032066;28;20414;-60
2023/10/06 05:13:57;;;;;;;27.70;25.75;;;;;;;;;;5032428;28;20036;-59
2023/10/06 05:16:22;;;;;;;31.27;29.10;;;;;;;;;;5030965;28;20025;-58
2023/10/06 05:18:48;;;;;;;17.65;16.05;;;;;;;;;;5031842;28;20033;-60
2023/10/06 05:21:13;;;;;;;30.20;28.23;;;;;;;;;;5032053;28;20545;-59
2023/10/06 05:23:38;;;;;;;53.23;50.03;;;;;;;;;;5032279;28;20526;-60
2023/10/06 05:26:04;;;;;;;27.20;25.53;;;;;;;;;;5031978;28;20429;-59
2023/10/06 05:28:31;;;;;;;24.85;22.77;;;;;;;;;;5031079;28;20088;-60
2023/10/06 05:30:56;;;;;;;29.95;28.08;;;;;;;;;;5030334;28;20143;-60
2023/10/06 05:33:22;;;;;;;27.23;25.13;;;;;;;;;;5031752;28;20448;-58
2023/10/06 05:35:48;;;;;;;24.00;22.05;;;;;;;;;;5031874;28;20504;-60
2023/10/06 05:38:13;;;;;;;25.27;23.55;;;;;;;;;;5031854;28;20116;-60
2023/10/06 05:40:42;;;;;;;11.93;10.70;;;;;;;;;;5031481;28;20061;-60
2023/10/06 05:43:11;;;;;;;14.65;13.32;;;;;;;;;;5031637;28;20033;-59
2023/10/06 05:45:39;;;;;;;25.77;23.83;;;;;;;;;;5031841;28;20029;-60
2023/10/06 05:48:06;;;;;;;16.27;14.70;;;;;;;;;;5031690;28;20067;-61
2023/10/06 05:50:35;;;;;;;33.92;31.83;;;;;;;;;;5031229;28;20416;-60
2023/10/06 05:53:12;;;;;;;22.00;20.33;;;;;;;;;;5031750;28;20021;-60
2023/10/06 05:55:38;;;;;;;27.88;26.08;;;;;;;;;;5031680;28;20026;-59
2023/10/06 05:58:04;;;;;;;29.70;27.70;;;;;;;;;;5031393;28;20020;-59
2023/10/06 06:00:33;;;;;;;20.45;18.77;;;;;;;;;;5030923;28;20013;-61
2023/10/06 06:03:04;;;;;;;15.32;14.00;;;;;;;;;;5031471;28;20143;-60
2023/10/06 06:05:33;;;;;;;25.73;23.92;;;;;;;;;;5031123;28;20036;-60
2023/10/06 06:07:59;;;;;;;36.30;34.20;;;;;;;;;;5030033;28;20018;-60
2023/10/06 06:10:28;;;;;;;36.88;34.30;;;;;;;;;;5030736;28;20071;-60
2023/10/06 06:12:53;;;;;;;29.13;27.17;;;;;;;;;;5031288;28;20096;-60
2023/10/06 06:15:19;;;;;;;17.07;15.87;;;;;;;;;;5030918;28;20054;-60
2023/10/06 06:17:44;;;;;;;27.57;25.77;;;;;;;;;;5031266;28;20524;-59
2023/10/06 06:20:14;;;;;;;15.97;14.63;;;;;;;;;;5030518;28;20435;-60
2023/10/06 06:22:40;;;;;;;21.95;20.35;;;;;;;;;;5031396;28;20029;-59
2023/10/06 06:25:05;;;;;;;26.15;24.38;;;;;;;;;;5031553;28;20025;-59
2023/10/06 06:27:31;;;;;;;22.20;20.33;;;;;;;;;;5031174;28;20037;-59
2023/10/06 06:29:57;;;;;;;20.92;19.13;;;;;;;;;;5032509;28;20037;-61
2023/10/06 06:32:25;;;;;;;28.80;27.03;;;;;;;;;;5033786;28;20060;-60
2023/10/06 06:34:50;;;;;;;26.42;24.63;;;;;;;;;;5034738;28;20468;-60
2023/10/06 06:37:15;;;;;;;32.30;30.20;;;;;;;;;;5035168;28;20021;-59
2023/10/06 06:39:44;;;;;;;20.93;19.40;;;;;;;;;;5033924;28;20429;-60
2023/10/06 06:42:10;;;;;;;37.92;35.40;;;;;;;;;;5031120;28;20025;-61
2023/10/06 06:44:36;;;;;;;28.85;26.75;;;;;;;;;;5031050;28;20032;-58
2023/10/06 06:47:01;;;;;;;23.25;21.67;;;;;;;;;;5030515;28;20033;-58
2023/10/06 06:49:26;;;;;;;21.07;19.57;;;;;;;;;;5030523;28;20413;-60
2023/10/06 06:51:53;;;;;;;21.77;19.87;;;;;;;;;;5030741;28;20033;-58
2023/10/06 06:54:19;;;;;;;17.38;15.98;;;;;;;;;;5030870;28;20412;-60
2023/10/06 06:56:47;;;;;;;;;;;;;;;;;;5031254;28;20386;-60
2023/10/06 06:59:12;;;;;;;31.70;29.70;;;;;;;;;;5030249;28;19905;-60
2023/10/06 07:01:38;;;;;;;40.30;37.78;;;;;;;;;;5030388;28;20021;-60
2023/10/06 07:04:04;;;;;;;21.63;19.83;;;;;;;;;;5030963;28;20021;-61
2023/10/06 07:06:30;;;;;;;20.02;18.27;;;;;;;;;;5030491;28;20032;-59
2023/10/06 07:08:57;;;;;;;36.72;34.53;;;;;;;;;;5030768;28;20041;-60
2023/10/06 07:11:22;;;;;;;24.40;22.52;;;;;;;;;;5030277;28;20050;-61
2023/10/06 07:13:47;;;;;;;19.60;18.10;;;;;;;;;;5030358;28;20155;-60
2023/10/06 07:16:14;;;;;;;22.40;20.80;;;;;;;;;;5030871;28;20018;-59
2023/10/06 07:18:39;;;;;;;25.13;23.33;;;;;;;;;;5030330;28;20507;-60
2023/10/06 07:21:09;;;;;;;31.23;29.33;;;;;;;;;;5030440;28;20022;-60
2023/10/06 07:23:37;;;;;;;28.48;26.50;;;;;;;;;;5030456;28;20014;-60
2023/10/06 07:26:07;;;;;;;35.63;33.53;;;;;;;;;;5030417;28;20029;-60
2023/10/06 07:28:33;;;;;;;35.55;33.17;;;;;;;;;;5030274;28;20414;-58
2023/10/06 07:30:59;;;;;;;45.80;43.17;;;;;;;;;;5030051;28;20013;-60
2023/10/06 07:33:24;;;;;;;36.67;34.38;;;;;;;;;;5030450;28;20143;-61
2023/10/06 07:35:51;;;;;;;41.40;38.63;;;;;;;;;;5030274;28;20022;-60
2023/10/06 07:38:18;;;;;;;24.55;22.88;;;;;;;;;;5030435;28;20013;-60
2023/10/06 07:40:43;;;;;;;;;;;;;;;;;;5030802;28;20075;-59
2023/10/06 07:43:09;;;;;;;22.75;21.23;;;;;;;;;;5031434;28;19905;-58
2023/10/06 07:45:35;;;;;;;31.42;29.42;;;;;;;;;;5030440;28;20037;-61
2023/10/06 07:48:00;;;;;;;36.63;33.95;;;;;;;;;;5030356;28;20473;-61
2023/10/06 07:50:26;;;;;;;29.17;27.20;;;;;;;;;;5029788;28;20389;-60
2023/10/06 07:52:52;;;;;;;42.30;39.80;;;;;;;;;;5033572;28;20064;-59
2023/10/06 07:55:21;;;;;;;31.13;29.10;;;;;;;;;;5033555;28;20429;-58
2023/10/06 07:57:47;;;;;;;31.80;29.73;;;;;;;;;;5033782;28;20381;-61
2023/10/06 08:00:24;;;;;;;34.50;32.15;;;;;;;;;;5033363;28;20013;-60
2023/10/06 08:02:49;;;;;;;28.95;27.05;;;;;;;;;;5033398;28;20013;-60
2023/10/06 08:05:17;;;;;;;92.60;86.93;;;;;;;;;;5033632;28;20029;-60
2023/10/06 08:07:42;;;;;;;39.47;37.13;;;;;;;;;;5033440;28;20435;-60
2023/10/06 08:10:13;;;;;;;33.53;31.13;;;;;;;;;;5033044;28;20079;-57
2023/10/06 08:12:38;;;;;;;26.27;24.38;;;;;;;;;;5032289;28;20017;-59
2023/10/06 08:15:09;;;;;;;26.87;24.80;;;;;;;;;;5033544;28;20028;-57
2023/10/06 08:17:34;;;;;;;134.43;124.75;;;;;;;;;;5033236;28;20125;-60
2023/10/06 08:20:01;;;;;;;30.75;28.58;;;;;;;;;;5032699;28;20142;-60
2023/10/06 08:22:26;;;;;;;25.85;23.90;;;;;;;;;;5033563;28;20027;-61
2023/10/06 08:24:54;;;;;;;51.07;47.83;;;;;;;;;;5033314;28;20017;-59
2023/10/06 08:27:23;;;;;;;24.10;22.35;;;;;;;;;;5033347;28;20456;-59
2023/10/06 08:29:51;;;;;;;44.72;42.00;;;;;;;;;;5032432;28;20029;-61
2023/10/06 08:32:17;;;;;;;26.65;24.90;;;;;;;;;;5032612;28;20014;-60
2023/10/06 08:34:43;;;;;;;32.58;30.23;;;;;;;;;;5033144;28;20499;-59
2023/10/06 08:37:11;;;;;;;29.45;27.35;;;;;;;;;;5033157;28;20037;-58
2023/10/06 08:39:39;;;;;;;29.20;27.15;;;;;;;;;;5032555;28;20031;-60
2023/10/06 08:42:06;;;;;;;19.27;17.67;;;;;;;;;;5033059;28;20495;-59
2023/10/06 08:44:34;;;;;;;28.88;27.13;;;;;;;;;;5032765;28;20397;-60
2023/10/06 08:46:59;;;;;;;33.30;31.23;;;;;;;;;;5033483;28;20388;-60
2023/10/06 08:49:27;;;;;;;16.90;15.50;;;;;;;;;;5031678;28;20076;-60
2023/10/06 08:51:54;;;;;;;30.15;28.05;;;;;;;;;;5034616;28;20017;-60
2023/10/06 08:54:20;;;;;;;11.75;10.73;;;;;;;;;;5033301;28;20058;-60
2023/10/06 08:56:46;;;;;;;;;;;;;;;;;;5033438;28;20018;-59
2023/10/06 08:59:16;;;;;;;27.30;25.60;;;;;;;;;;5032631;28;20282;-60
2023/10/06 09:01:43;;;;;;;25.10;23.17;;;;;;;;;;5032543;28;20017;-60
2023/10/06 09:04:09;;;;;;;20.23;18.83;;;;;;;;;;5033385;28;20061;-60
2023/10/06 09:06:35;;;;;;;11.95;10.93;;;;;;;;;;5032935;28;20076;-60
2023/10/06 09:09:01;;;;;;;13.18;12.15;;;;;;;;;;5034100;28;20009;-64
2023/10/06 09:11:27;;;;;;;;;;;;;;;;;;5034574;28;20044;-60
2023/10/06 09:14:04;;;;;;;13.85;12.57;;;;;;;;;;5032545;28;19905;-61
2023/10/06 09:16:49;;;;;;;12.23;11.10;;;;;;;;;;5032501;28;20105;-59
2023/10/06 09:19:14;;;;;;;11.25;10.30;;;;;;;;;;5032270;28;20160;-58
2023/10/06 09:21:59;;;;;;;14.80;13.60;;;;;;;;;;5032736;28;20498;-58
2023/10/06 09:24:25;;;;;;;8.88;7.80;;;;;;;;;;5032625;28;20416;-60
2023/10/06 09:26:50;;;;;;;15.98;14.85;;;;;;;;;;5032409;28;20071;-60
2023/10/06 09:29:28;;;;;;;7.93;5.18;;;;;;;;;;5032606;28;20029;-61
2023/10/06 09:31:57;;;;;;;;;;;;;;;;;;5035175;28;20029;-58
2023/10/06 09:34:23;;;;;;;6.50;4.38;;;;;;;;;;5036317;28;19955;-61
2023/10/06 09:36:48;;;;;;;19.17;17.75;;;;;;;;;;5043996;28;20026;-59
2023/10/06 09:39:24;;;;;;;10.93;10.00;;;;;;;;;;5041841;28;20021;-60
2023/10/06 09:41:50;;;;;;;5.95;4.40;;;;;;;;;;5032558;28;20401;-58
2023/10/06 09:44:18;;;;;;;6.03;3.10;;;;;;;;;;5031948;28;20021;-61
2023/10/06 09:46:43;;;;;;;11.60;10.70;;;;;;;;;;5032009;28;20168;-60
2023/10/06 09:49:11;;;;;;;10.98;10.07;;;;;;;;;;5031576;28;20119;-59
2023/10/06 09:51:36;;;;;;;8.70;6.47;;;;;;;;;;5033111;28;20056;-61
2023/10/06 09:54:04;;;;;;;22.67;20.98;;;;;;;;;;5032701;28;20417;-60
2023/10/06 09:56:31;;;;;;;6.28;5.20;;;;;;;;;;5032687;28;20044;-60
2023/10/06 09:58:57;;;;;;;19.25;17.98;;;;;;;;;;5031970;28;20436;-61
2023/10/06 10:01:24;;;;;;;21.73;19.85;;;;;;;;;;5031853;28;20104;-60
2023/10/06 10:03:51;;;;;;;31.95;29.95;;;;;;;;;;5032257;28;20075;-59
2023/10/06 10:06:21;;;;;;;10.75;9.85;;;;;;;;;;5032344;28;20030;-61
2023/10/06 10:08:46;;;;;;;25.02;23.42;;;;;;;;;;5032150;28;20081;-60
2023/10/06 10:11:17;;;;;;;13.13;12.18;;;;;;;;;;5031092;28;20013;-60
2023/10/06 10:13:59;;;;;;;16.70;15.45;;;;;;;;;;5031109;28;20026;-59
2023/10/06 10:16:25;;;;;;;15.05;13.63;;;;;;;;;;5031984;28;20108;-63
2023/10/06 10:19:03;;;;;;;14.25;13.20;;;;;;;;;;5030813;28;20017;-60
2023/10/06 10:21:28;;;;;;;12.73;11.73;;;;;;;;;;5030088;28;20045;-59
2023/10/06 10:23:54;;;;;;;18.33;17.00;;;;;;;;;;5031262;28;20036;-60
2023/10/06 10:26:25;;;;;;;12.98;11.88;;;;;;;;;;5031064;28;20064;-60
2023/10/06 10:29:09;;;;;;;19.42;18.00;;;;;;;;;;5030897;28;20024;-58
2023/10/06 10:31:46;;;;;;;27.48;25.52;;;;;;;;;;5030884;28;20097;-58
2023/10/06 10:34:20;;;;;;;7.93;6.38;;;;;;;;;;5022056;28;20485;-58
2023/10/06 10:36:47;;;;;;;11.70;10.63;;;;;;;;;;5030954;28;20056;-62
2023/10/06 10:39:18;;;;;;;42.00;38.40;;;;;;;;;;5030541;28;20020;-60
2023/10/06 10:41:45;;;;;;;6.95;5.45;;;;;;;;;;5031106;28;20017;-60
2023/10/06 10:44:17;;;;;;;8.20;7.32;;;;;;;;;;5030764;28;20441;-60
2023/10/06 10:46:46;;;;;;;12.70;11.50;;;;;;;;;;5031133;28;20026;-60
2023/10/06 10:49:14;;;;;;;7.53;6.50;;;;;;;;;;5030335;28;20072;-60
2023/10/06 10:51:54;;;;;;;11.35;10.38;;;;;;;;;;5030986;28;20014;-59
2023/10/06 10:54:23;;;;;;;11.45;10.43;;;;;;;;;;5030731;28;20025;-59
2023/10/06 10:56:51;;;;;;;13.75;12.60;;;;;;;;;;5031050;28;20025;-59
2023/10/06 10:59:16;;;;;;;10.27;9.27;;;;;;;;;;5030315;28;20350;-60
2023/10/06 11:01:43;;;;;;;25.48;23.70;;;;;;;;;;5031189;28;20020;-60
2023/10/06 11:06:58;;;;;;;23.52;21.92;;;;;;;;;;5031241;28;20036;-60
2023/10/06 11:09:30;;;;;;;8.13;7.32;;;;;;;;;;5029154;28;20485;-60
2023/10/06 11:12:00;;;;;;;24.02;22.42;;;;;;;;;;5030824;28;20144;-60
2023/10/06 11:14:27;;;;;;;25.77;23.92;;;;;;;;;;5031321;28;20025;-58
2023/10/06 11:17:02;;;;;;;6.93;4.65;;;;;;;;;;5030658;28;20595;-58
2023/10/06 11:19:27;;;;;;;10.02;9.10;;;;;;;;;;5031554;28;20109;-60
2023/10/06 11:21:53;;;;;;;12.82;11.55;;;;;;;;;;5034630;28;20053;-60
2023/10/06 11:24:25;;;;;;;9.13;8.20;;;;;;;;;;5034881;28;20529;-59
2023/10/06 11:26:51;;;;;;;35.45;33.25;;;;;;;;;;5039999;28;20029;-59
2023/10/06 11:29:36;;;;;;;20.75;19.27;;;;;;;;;;5038515;28;20397;-59
2023/10/06 11:32:01;;;;;;;11.57;10.48;;;;;;;;;;5033906;28;20505;-61
2023/10/06 11:34:27;;;;;;;20.93;19.33;;;;;;;;;;5034248;28;20033;-60
2023/10/06 11:36:54;;;;;;;85.90;79.50;;;;;;;;;;5034015;28;20431;-61
2023/10/06 11:39:22;;;;;;;16.85;15.43;;;;;;;;;;5033575;28;20480;-60
2023/10/06 11:41:50;;;;;;;38.83;36.53;;;;;;;;;;5034123;28;20029;-59
2023/10/06 11:44:15;;;;;;;8.13;6.60;;;;;;;;;;5032761;28;20029;-61
2023/10/06 11:46:49;;;;;;;40.38;37.92;;;;;;;;;;5033715;28;20017;-60
2023/10/06 11:49:19;;;;;;;27.83;25.73;;;;;;;;;;5033460;28;20022;-62
2023/10/06 11:51:44;;;;;;;40.90;38.35;;;;;;;;;;5034022;28;20014;-58
2023/10/06 11:54:09;;;;;;;24.50;22.80;;;;;;;;;;5033842;28;20033;-59
2023/10/06 11:56:47;;;;;;;33.85;31.77;;;;;;;;;;5033862;28;20433;-60
2023/10/06 11:59:19;;;;;;;28.92;26.90;;;;;;;;;;5033408;28;20021;-59
2023/10/06 12:01:45;;;;;;;26.75;24.88;;;;;;;;;;5033918;28;20017;-60
2023/10/06 12:04:23;;;;;;;44.05;41.38;;;;;;;;;;5033705;28;20022;-60
2023/10/06 12:06:50;;;;;;;15.05;13.52;;;;;;;;;;5033413;28;20112;-61
2023/10/06 12:09:22;;;;;;;25.52;23.60;;;;;;;;;;5032916;28;20152;-60
2023/10/06 12:11:47;;;;;;;42.50;39.80;;;;;;;;;;5033923;28;20052;-60
2023/10/06 12:14:13;;;;;;;32.25;30.00;;;;;;;;;;5033645;28;20469;-59
2023/10/06 12:16:38;;;;;;;40.40;37.97;;;;;;;;;;5033996;28;20014;-61
2023/10/06 12:19:03;;;;;;;56.57;53.20;;;;;;;;;;5033313;28;20032;-62
2023/10/06 12:21:29;;;;;;;24.27;22.40;;;;;;;;;;5032892;28;20056;-60
2023/10/06 12:23:54;;;;;;;58.58;55.13;;;;;;;;;;5033410;28;20056;-58
2023/10/06 12:26:19;;;;;;;38.00;35.60;;;;;;;;;;5034344;28;20297;-58
2023/10/06 12:28:46;;;;;;;51.45;48.30;;;;;;;;;;5034351;28;20497;-59
2023/10/06 12:31:11;;;;;;;36.38;33.92;;;;;;;;;;5033278;28;20026;-58
2023/10/06 12:33:38;;;;;;;19.73;18.23;;;;;;;;;;5034428;28;20025;-60
2023/10/06 12:36:08;;;;;;;22.83;21.13;;;;;;;;;;5033650;28;20041;-59
2023/10/06 12:38:33;;;;;;;35.42;33.00;;;;;;;;;;5032679;28;20121;-59
2023/10/06 12:40:58;;;;;;;34.10;31.97;;;;;;;;;;5032839;28;20520;-59
2023/10/06 12:43:24;;;;;;;48.40;45.47;;;;;;;;;;5033371;28;20025;-60
2023/10/06 12:45:50;;;;;;;39.22;36.83;;;;;;;;;;5032849;28;20025;-60
2023/10/06 12:48:15;;;;;;;37.97;35.63;;;;;;;;;;5032785;28;20020;-62
2023/10/06 12:50:40;;;;;;;26.98;25.13;;;;;;;;;;5032449;28;20032;-60
2023/10/06 12:53:08;;;;;;;34.13;31.83;;;;;;;;;;5032982;28;20389;-60
2023/10/06 12:55:33;;;;;;;62.42;58.78;;;;;;;;;;5033037;28;20563;-59
2023/10/06 12:57:58;;;;;;;16.80;15.40;;;;;;;;;;5032678;28;20108;-61
2023/10/06 13:00:23;;;;;;;21.23;19.70;;;;;;;;;;5032292;28;20108;-59
2023/10/06 13:02:48;;;;;;;15.75;14.52;;;;;;;;;;5032933;28;20021;-59
2023/10/06 13:05:16;;;;;;;60.03;56.40;;;;;;;;;;5032606;28;20040;-60
2023/10/06 13:07:43;;;;;;;35.08;32.47;;;;;;;;;;5032528;28;20025;-61
2023/10/06 13:10:09;;;;;;;108.50;100.35;;;;;;;;;;5031836;28;20087;-58
2023/10/06 13:12:39;;;;;;;50.72;47.65;;;;;;;;;;5032676;28;20021;-58
2023/10/06 13:15:06;;;;;;;39.00;36.70;;;;;;;;;;5032843;28;20021;-59
2023/10/06 13:17:33;;;;;;;32.90;30.88;;;;;;;;;;5032404;28;20025;-58
2023/10/06 13:20:00;;;;;;;39.53;37.00;;;;;;;;;;5031344;28;20037;-60
2023/10/06 13:22:27;;;;;;;59.63;56.13;;;;;;;;;;5032032;28;20140;-60
2023/10/06 13:24:54;;;;;;;21.00;19.42;;;;;;;;;;5032256;28;20045;-60
2023/10/06 13:27:19;;;;;;;14.90;13.73;;;;;;;;;;5032284;28;20030;-58
2023/10/06 13:29:44;;;;;;;22.20;20.50;;;;;;;;;;5031825;28;20068;-59
2023/10/06 13:32:11;;;;;;;63.17;59.10;;;;;;;;;;5031629;28;20014;-60
2023/10/06 13:34:36;;;;;;;29.95;27.95;;;;;;;;;;5033358;28;20151;-62
2023/10/06 13:37:01;;;;;;;53.10;49.95;;;;;;;;;;5032427;28;20109;-60
2023/10/06 13:39:28;;;;;;;48.10;45.23;;;;;;;;;;5031748;28;20021;-60
2023/10/06 13:41:53;;;;;;;26.90;25.15;;;;;;;;;;5032262;28;20022;-60
2023/10/06 13:44:18;;;;;;;48.57;45.83;;;;;;;;;;5032029;28;20021;-61
2023/10/06 13:46:44;;;;;;;65.35;61.80;;;;;;;;;;5031864;28;20522;-61
2023/10/06 13:49:09;;;;;;;44.50;41.90;;;;;;;;;;5030145;28;20022;-58
2023/10/06 13:51:34;;;;;;;42.27;39.63;;;;;;;;;;5031504;28;20424;-59
2023/10/06 13:53:59;;;;;;;44.27;41.03;;;;;;;;;;5030681;28;20017;-59
2023/10/06 13:56:24;;;;;;;21.38;19.67;;;;;;;;;;5031890;28;20017;-60
2023/10/06 13:58:50;;;;;;;13.17;12.13;;;;;;;;;;5031751;28;20377;-60
2023/10/06 14:01:15;;;;;;;17.33;16.10;;;;;;;;;;5031678;28;20025;-60
2023/10/06 14:03:42;;;;;;;27.23;25.40;;;;;;;;;;5031778;28;20018;-60
2023/10/06 14:06:08;;;;;;;27.95;26.08;;;;;;;;;;5031587;28;20440;-59
2023/10/06 14:08:33;;;;;;;35.03;32.83;;;;;;;;;;5031524;28;20428;-58
2023/10/06 14:10:58;;;;;;;49.50;46.63;;;;;;;;;;5030490;28;20068;-60
2023/10/06 14:13:25;;;;;;;39.95;37.55;;;;;;;;;;5031412;28;20031;-59
2023/10/06 14:18:25;;;;;;;14.00;12.70;;;;;;;;;;5030958;28;20021;-61
2023/10/06 14:20:52;;;;;;;15.75;14.52;;;;;;;;;;5030629;28;20109;-58
2023/10/06 14:23:23;;;;;;;19.00;17.70;;;;;;;;;;5031214;28;20014;-61
2023/10/06 14:25:50;;;;;;;15.93;14.63;;;;;;;;;;5031028;28;20120;-59
2023/10/06 14:28:15;;;;;;;38.03;35.65;;;;;;;;;;5031131;28;20013;-59
2023/10/06 14:30:44;;;;;;;23.95;22.27;;;;;;;;;;5030747;28;20367;-61
2023/10/06 14:46:23;;;;;;;24.33;22.75;;;;;;;;;;5031237;28;20103;-59
2023/10/06 14:48:48;;;;;;;19.13;17.73;;;;;;;;;;5030278;28;20030;-60